sensor_id;sensor_type;location;lat;lon;timestamp;P1;durP1;ratioP1;P2;durP2;ratioP2
74914;SDS011;63475;45.140;-75.616;2022-10-31T00:00:34;17.65;;;8.18;;
74914;SDS011;63475;45.140;-75.616;2022-10-31T00:01:36;25.70;;;9.90;;
74914;SDS011;63475;45.140;-75.616;2022-10-31T00:02:38;11.32;;;7.00;;
74914;SDS011;63475;45.140;-75.616;2022-10-31T00:03:38;7.97;;;4.70;;
74914;SDS011;63475;45.140;-75.616;2022-10-31T00:04:39;11.25;;;5.15;;
74914;SDS011;63475;45.140;-75.616;2022-10-31T00:05:41;15.77;;;8.85;;
74914;SDS011;63475;45.140;-75.616;2022-10-31T00:06:43;21.55;;;6.57;;
74914;SDS011;63475;45.140;-75.616;2022-10-31T00:07:44;16.65;;;7.93;;
74914;SDS011;63475;45.140;-75.616;2022-10-31T00:08:46;13.25;;;4.75;;
74914;SDS011;63475;45.140;-75.616;2022-10-31T00:09:48;8.93;;;5.00;;
74914;SDS011;63475;45.140;-75.616;2022-10-31T00:10:49;13.38;;;5.60;;
74914;SDS011;63475;45.140;-75.616;2022-10-31T00:11:50;12.05;;;4.57;;
74914;SDS011;63475;45.140;-75.616;2022-10-31T00:12:51;15.95;;;9.45;;
74914;SDS011;63475;45.140;-75.616;2022-10-31T00:13:52;5.72;;;1.33;;
74914;SDS011;63475;45.140;-75.616;2022-10-31T00:14:53;21.23;;;5.38;;
74914;SDS011;63475;45.140;-75.616;2022-10-31T00:15:54;4.60;;;2.67;;
74914;SDS011;63475;45.140;-75.616;2022-10-31T00:16:55;10.27;;;6.40;;
74914;SDS011;63475;45.140;-75.616;2022-10-31T00:17:55;4.90;;;3.85;;
74914;SDS011;63475;45.140;-75.616;2022-10-31T00:19:00;8.15;;;5.18;;
74914;SDS011;63475;45.140;-75.616;2022-10-31T00:20:03;10.65;;;3.80;;
74914;SDS011;63475;45.140;-75.616;2022-10-31T00:21:04;1.95;;;1.77;;
74914;SDS011;63475;45.140;-75.616;2022-10-31T00:22:05;6.00;;;3.92;;
74914;SDS011;63475;45.140;-75.616;2022-10-31T00:23:06;3.65;;;2.60;;
74914;SDS011;63475;45.140;-75.616;2022-10-31T00:24:07;4.63;;;1.85;;
74914;SDS011;63475;45.140;-75.616;2022-10-31T00:25:08;8.63;;;4.53;;
74914;SDS011;63475;45.140;-75.616;2022-10-31T00:26:09;2.47;;;1.42;;
74914;SDS011;63475;45.140;-75.616;2022-10-31T00:27:10;2.42;;;1.75;;
74914;SDS011;63475;45.140;-75.616;2022-10-31T00:28:11;3.33;;;2.00;;
74914;SDS011;63475;45.140;-75.616;2022-10-31T00:29:12;7.65;;;3.05;;
74914;SDS011;63475;45.140;-75.616;2022-10-31T00:30:13;2.55;;;1.58;;
74914;SDS011;63475;45.140;-75.616;2022-10-31T00:31:14;9.68;;;2.60;;
74914;SDS011;63475;45.140;-75.616;2022-10-31T00:32:15;1.60;;;0.98;;
74914;SDS011;63475;45.140;-75.616;2022-10-31T00:33:16;4.63;;;2.45;;
74914;SDS011;63475;45.140;-75.616;2022-10-31T00:34:17;2.80;;;2.58;;
74914;SDS011;63475;45.140;-75.616;2022-10-31T00:35:18;2.05;;;1.95;;
74914;SDS011;63475;45.140;-75.616;2022-10-31T00:36:19;1.95;;;1.13;;
74914;SDS011;63475;45.140;-75.616;2022-10-31T00:37:20;2.40;;;2.00;;
74914;SDS011;63475;45.140;-75.616;2022-10-31T00:38:21;2.50;;;0.85;;
74914;SDS011;63475;45.140;-75.616;2022-10-31T00:39:22;1.90;;;1.15;;
74914;SDS011;63475;45.140;-75.616;2022-10-31T00:40:23;2.22;;;2.03;;
74914;SDS011;63475;45.140;-75.616;2022-10-31T00:41:24;1.35;;;1.17;;
74914;SDS011;63475;45.140;-75.616;2022-10-31T00:42:25;1.70;;;1.40;;
74914;SDS011;63475;45.140;-75.616;2022-10-31T00:43:26;2.25;;;2.05;;
74914;SDS011;63475;45.140;-75.616;2022-10-31T00:44:27;2.28;;;2.15;;
74914;SDS011;63475;45.140;-75.616;2022-10-31T00:45:27;2.13;;;0.93;;
74914;SDS011;63475;45.140;-75.616;2022-10-31T00:46:28;1.88;;;1.08;;
74914;SDS011;63475;45.140;-75.616;2022-10-31T00:47:29;3.15;;;2.47;;
74914;SDS011;63475;45.140;-75.616;2022-10-31T00:48:30;3.20;;;1.67;;
74914;SDS011;63475;45.140;-75.616;2022-10-31T00:49:31;1.08;;;0.65;;
74914;SDS011;63475;45.140;-75.616;2022-10-31T00:50:32;0.98;;;0.47;;
74914;SDS011;63475;45.140;-75.616;2022-10-31T00:51:33;1.15;;;1.15;;
74914;SDS011;63475;45.140;-75.616;2022-10-31T00:52:34;3.17;;;1.13;;
74914;SDS011;63475;45.140;-75.616;2022-10-31T00:53:35;1.38;;;1.08;;
74914;SDS011;63475;45.140;-75.616;2022-10-31T00:54:36;2.92;;;1.45;;
74914;SDS011;63475;45.140;-75.616;2022-10-31T00:55:36;1.05;;;0.63;;
74914;SDS011;63475;45.140;-75.616;2022-10-31T00:56:37;1.52;;;1.42;;
74914;SDS011;63475;45.140;-75.616;2022-10-31T00:57:38;1.10;;;0.95;;
74914;SDS011;63475;45.140;-75.616;2022-10-31T00:58:39;1.27;;;0.98;;
74914;SDS011;63475;45.140;-75.616;2022-10-31T00:59:40;1.50;;;1.40;;
74914;SDS011;63475;45.140;-75.616;2022-10-31T01:00:41;1.23;;;0.75;;
74914;SDS011;63475;45.140;-75.616;2022-10-31T01:01:42;1.35;;;1.25;;
74914;SDS011;63475;45.140;-75.616;2022-10-31T01:02:43;1.65;;;0.93;;
74914;SDS011;63475;45.140;-75.616;2022-10-31T01:03:44;23.05;;;1.02;;
74914;SDS011;63475;45.140;-75.616;2022-10-31T01:04:45;1.15;;;0.95;;
74914;SDS011;63475;45.140;-75.616;2022-10-31T01:05:46;2.25;;;1.48;;
74914;SDS011;63475;45.140;-75.616;2022-10-31T01:07:05;3.95;;;3.58;;
74914;SDS011;63475;45.140;-75.616;2022-10-31T01:08:07;8.32;;;2.05;;
74914;SDS011;63475;45.140;-75.616;2022-10-31T01:09:08;12.38;;;2.47;;
74914;SDS011;63475;45.140;-75.616;2022-10-31T01:10:10;8.68;;;4.97;;
74914;SDS011;63475;45.140;-75.616;2022-10-31T01:11:19;16.13;;;5.55;;
74914;SDS011;63475;45.140;-75.616;2022-10-31T01:13:22;4.80;;;3.10;;
74914;SDS011;63475;45.140;-75.616;2022-10-31T01:14:23;2.40;;;2.20;;
74914;SDS011;63475;45.140;-75.616;2022-10-31T01:15:23;16.95;;;3.63;;
74914;SDS011;63475;45.140;-75.616;2022-10-31T01:16:25;4.38;;;3.83;;
74914;SDS011;63475;45.140;-75.616;2022-10-31T01:17:27;2.20;;;2.00;;
74914;SDS011;63475;45.140;-75.616;2022-10-31T01:18:28;4.45;;;1.73;;
74914;SDS011;63475;45.140;-75.616;2022-10-31T01:19:29;2.03;;;1.58;;
74914;SDS011;63475;45.140;-75.616;2022-10-31T01:20:30;1.85;;;1.42;;
74914;SDS011;63475;45.140;-75.616;2022-10-31T01:21:31;11.70;;;2.63;;
74914;SDS011;63475;45.140;-75.616;2022-10-31T01:22:32;2.40;;;2.20;;
74914;SDS011;63475;45.140;-75.616;2022-10-31T01:23:34;8.15;;;1.52;;
74914;SDS011;63475;45.140;-75.616;2022-10-31T01:24:35;0.50;;;0.20;;
74914;SDS011;63475;45.140;-75.616;2022-10-31T01:25:36;2.88;;;1.40;;
74914;SDS011;63475;45.140;-75.616;2022-10-31T01:26:37;2.47;;;1.13;;
74914;SDS011;63475;45.140;-75.616;2022-10-31T01:27:38;1.52;;;1.33;;
74914;SDS011;63475;45.140;-75.616;2022-10-31T01:28:43;1.90;;;1.80;;
74914;SDS011;63475;45.140;-75.616;2022-10-31T01:29:54;1.25;;;0.80;;
74914;SDS011;63475;45.140;-75.616;2022-10-31T01:30:55;1.63;;;1.45;;
74914;SDS011;63475;45.140;-75.616;2022-10-31T01:31:56;1.58;;;1.45;;
74914;SDS011;63475;45.140;-75.616;2022-10-31T01:32:56;4.22;;;3.53;;
74914;SDS011;63475;45.140;-75.616;2022-10-31T01:33:57;4.03;;;3.10;;
74914;SDS011;63475;45.140;-75.616;2022-10-31T01:34:59;25.48;;;6.15;;
74914;SDS011;63475;45.140;-75.616;2022-10-31T01:36:00;4.40;;;2.80;;
74914;SDS011;63475;45.140;-75.616;2022-10-31T01:37:01;3.17;;;2.60;;
74914;SDS011;63475;45.140;-75.616;2022-10-31T01:38:02;3.75;;;2.72;;
74914;SDS011;63475;45.140;-75.616;2022-10-31T01:39:05;3.60;;;2.55;;
74914;SDS011;63475;45.140;-75.616;2022-10-31T01:40:07;15.30;;;4.10;;
74914;SDS011;63475;45.140;-75.616;2022-10-31T01:41:10;10.07;;;4.88;;
74914;SDS011;63475;45.140;-75.616;2022-10-31T01:42:15;4.50;;;3.10;;
74914;SDS011;63475;45.140;-75.616;2022-10-31T01:43:20;8.80;;;7.45;;
74914;SDS011;63475;45.140;-75.616;2022-10-31T01:45:21;10.38;;;5.70;;
74914;SDS011;63475;45.140;-75.616;2022-10-31T01:46:27;9.18;;;5.25;;
74914;SDS011;63475;45.140;-75.616;2022-10-31T01:47:41;15.05;;;7.32;;
74914;SDS011;63475;45.140;-75.616;2022-10-31T01:48:44;27.25;;;8.60;;
74914;SDS011;63475;45.140;-75.616;2022-10-31T01:49:51;6.15;;;5.65;;
74914;SDS011;63475;45.140;-75.616;2022-10-31T01:50:54;6.93;;;6.32;;
74914;SDS011;63475;45.140;-75.616;2022-10-31T01:53:52;4.25;;;3.47;;
74914;SDS011;63475;45.140;-75.616;2022-10-31T01:56:06;4.32;;;3.92;;
74914;SDS011;63475;45.140;-75.616;2022-10-31T01:57:09;5.10;;;1.77;;
74914;SDS011;63475;45.140;-75.616;2022-10-31T01:58:13;21.42;;;2.63;;
74914;SDS011;63475;45.140;-75.616;2022-10-31T01:59:17;3.35;;;2.53;;
74914;SDS011;63475;45.140;-75.616;2022-10-31T02:00:21;12.48;;;3.95;;
74914;SDS011;63475;45.140;-75.616;2022-10-31T02:01:22;1.48;;;1.23;;
74914;SDS011;63475;45.140;-75.616;2022-10-31T02:02:23;5.63;;;2.72;;
74914;SDS011;63475;45.140;-75.616;2022-10-31T02:03:27;2.97;;;2.78;;
74914;SDS011;63475;45.140;-75.616;2022-10-31T02:04:29;1.33;;;1.23;;
74914;SDS011;63475;45.140;-75.616;2022-10-31T02:05:30;1.67;;;1.40;;
74914;SDS011;63475;45.140;-75.616;2022-10-31T02:06:47;4.15;;;1.95;;
74914;SDS011;63475;45.140;-75.616;2022-10-31T02:09:06;2.05;;;1.15;;
74914;SDS011;63475;45.140;-75.616;2022-10-31T02:10:07;3.78;;;1.33;;
74914;SDS011;63475;45.140;-75.616;2022-10-31T02:11:08;3.58;;;1.85;;
74914;SDS011;63475;45.140;-75.616;2022-10-31T02:12:10;1.27;;;0.98;;
74914;SDS011;63475;45.140;-75.616;2022-10-31T02:13:12;1.95;;;1.73;;
74914;SDS011;63475;45.140;-75.616;2022-10-31T02:14:14;3.03;;;1.15;;
74914;SDS011;63475;45.140;-75.616;2022-10-31T02:15:15;3.53;;;2.08;;
74914;SDS011;63475;45.140;-75.616;2022-10-31T02:16:16;1.50;;;1.40;;
74914;SDS011;63475;45.140;-75.616;2022-10-31T02:17:17;2.40;;;1.60;;
74914;SDS011;63475;45.140;-75.616;2022-10-31T02:18:17;1.40;;;0.90;;
74914;SDS011;63475;45.140;-75.616;2022-10-31T02:20:45;1.08;;;0.80;;
74914;SDS011;63475;45.140;-75.616;2022-10-31T02:29:33;1.00;;;0.85;;
74914;SDS011;63475;45.140;-75.616;2022-10-31T02:30:58;0.95;;;0.70;;
74914;SDS011;63475;45.140;-75.616;2022-10-31T02:33:40;1.25;;;0.98;;
74914;SDS011;63475;45.140;-75.616;2022-10-31T02:36:24;1.10;;;1.00;;
74914;SDS011;63475;45.140;-75.616;2022-10-31T02:37:34;2.15;;;2.05;;
74914;SDS011;63475;45.140;-75.616;2022-10-31T02:41:10;2.42;;;1.50;;
74914;SDS011;63475;45.140;-75.616;2022-10-31T02:42:29;1.00;;;0.65;;
74914;SDS011;63475;45.140;-75.616;2022-10-31T02:44:00;1.65;;;1.00;;
74914;SDS011;63475;45.140;-75.616;2022-10-31T02:45:26;0.60;;;0.52;;
74914;SDS011;63475;45.140;-75.616;2022-10-31T02:46:34;2.13;;;2.03;;
74914;SDS011;63475;45.140;-75.616;2022-10-31T02:47:45;1.63;;;1.52;;
74914;SDS011;63475;45.140;-75.616;2022-10-31T02:48:50;1.35;;;1.25;;
74914;SDS011;63475;45.140;-75.616;2022-10-31T02:50:14;1.73;;;0.90;;
74914;SDS011;63475;45.140;-75.616;2022-10-31T02:51:21;1.00;;;0.90;;
74914;SDS011;63475;45.140;-75.616;2022-10-31T02:52:30;0.20;;;0.10;;
74914;SDS011;63475;45.140;-75.616;2022-10-31T02:53:33;3.42;;;1.00;;
74914;SDS011;63475;45.140;-75.616;2022-10-31T02:54:35;1.33;;;1.17;;
74914;SDS011;63475;45.140;-75.616;2022-10-31T02:56:37;1.80;;;1.50;;
74914;SDS011;63475;45.140;-75.616;2022-10-31T02:57:37;1.73;;;1.63;;
74914;SDS011;63475;45.140;-75.616;2022-10-31T02:58:43;1.13;;;0.90;;
74914;SDS011;63475;45.140;-75.616;2022-10-31T02:59:49;1.88;;;1.20;;
74914;SDS011;63475;45.140;-75.616;2022-10-31T03:01:06;0.57;;;0.25;;
74914;SDS011;63475;45.140;-75.616;2022-10-31T03:07:51;5.28;;;3.67;;
74914;SDS011;63475;45.140;-75.616;2022-10-31T03:11:44;14.70;;;9.27;;
74914;SDS011;63475;45.140;-75.616;2022-10-31T03:13:12;5.25;;;4.38;;
74914;SDS011;63475;45.140;-75.616;2022-10-31T03:14:20;7.68;;;3.88;;
74914;SDS011;63475;45.140;-75.616;2022-10-31T03:15:30;2.10;;;1.52;;
74914;SDS011;63475;45.140;-75.616;2022-10-31T03:16:49;8.02;;;2.85;;
74914;SDS011;63475;45.140;-75.616;2022-10-31T03:19:03;5.72;;;3.83;;
74914;SDS011;63475;45.140;-75.616;2022-10-31T03:20:08;9.20;;;4.97;;
74914;SDS011;63475;45.140;-75.616;2022-10-31T03:21:14;19.42;;;9.27;;
74914;SDS011;63475;45.140;-75.616;2022-10-31T03:22:22;7.28;;;6.20;;
74914;SDS011;63475;45.140;-75.616;2022-10-31T03:23:24;5.78;;;4.03;;
74914;SDS011;63475;45.140;-75.616;2022-10-31T03:24:27;7.32;;;4.60;;
74914;SDS011;63475;45.140;-75.616;2022-10-31T03:25:31;17.40;;;4.45;;
74914;SDS011;63475;45.140;-75.616;2022-10-31T03:26:35;3.67;;;2.03;;
74914;SDS011;63475;45.140;-75.616;2022-10-31T03:27:40;7.15;;;4.10;;
74914;SDS011;63475;45.140;-75.616;2022-10-31T03:28:45;5.40;;;4.60;;
74914;SDS011;63475;45.140;-75.616;2022-10-31T03:29:50;6.90;;;3.95;;
74914;SDS011;63475;45.140;-75.616;2022-10-31T03:30:54;7.63;;;5.15;;
74914;SDS011;63475;45.140;-75.616;2022-10-31T03:31:58;7.65;;;3.80;;
74914;SDS011;63475;45.140;-75.616;2022-10-31T03:33:07;9.88;;;6.10;;
74914;SDS011;63475;45.140;-75.616;2022-10-31T03:34:13;11.10;;;5.03;;
74914;SDS011;63475;45.140;-75.616;2022-10-31T03:35:16;13.25;;;7.68;;
74914;SDS011;63475;45.140;-75.616;2022-10-31T03:36:19;16.10;;;6.32;;
74914;SDS011;63475;45.140;-75.616;2022-10-31T03:37:20;6.22;;;4.07;;
74914;SDS011;63475;45.140;-75.616;2022-10-31T03:38:25;11.93;;;3.90;;
74914;SDS011;63475;45.140;-75.616;2022-10-31T03:39:27;4.80;;;2.35;;
74914;SDS011;63475;45.140;-75.616;2022-10-31T03:40:30;8.85;;;4.15;;
74914;SDS011;63475;45.140;-75.616;2022-10-31T03:41:36;6.75;;;4.95;;
74914;SDS011;63475;45.140;-75.616;2022-10-31T03:42:42;8.05;;;3.08;;
74914;SDS011;63475;45.140;-75.616;2022-10-31T03:43:49;10.43;;;5.88;;
74914;SDS011;63475;45.140;-75.616;2022-10-31T03:44:56;1.92;;;1.25;;
74914;SDS011;63475;45.140;-75.616;2022-10-31T03:46:02;11.52;;;7.20;;
74914;SDS011;63475;45.140;-75.616;2022-10-31T03:47:04;7.70;;;3.78;;
74914;SDS011;63475;45.140;-75.616;2022-10-31T03:48:05;4.43;;;2.10;;
74914;SDS011;63475;45.140;-75.616;2022-10-31T03:49:06;4.90;;;2.85;;
74914;SDS011;63475;45.140;-75.616;2022-10-31T03:50:08;6.47;;;4.97;;
74914;SDS011;63475;45.140;-75.616;2022-10-31T03:51:18;11.63;;;3.83;;
74914;SDS011;63475;45.140;-75.616;2022-10-31T03:52:30;2.88;;;2.05;;
74914;SDS011;63475;45.140;-75.616;2022-10-31T03:53:45;2.67;;;2.45;;
74914;SDS011;63475;45.140;-75.616;2022-10-31T03:54:54;6.28;;;4.75;;
74914;SDS011;63475;45.140;-75.616;2022-10-31T03:56:00;12.82;;;4.32;;
74914;SDS011;63475;45.140;-75.616;2022-10-31T03:58:23;5.25;;;4.38;;
74914;SDS011;63475;45.140;-75.616;2022-10-31T03:59:35;4.40;;;3.97;;
74914;SDS011;63475;45.140;-75.616;2022-10-31T04:00:40;8.07;;;5.75;;
74914;SDS011;63475;45.140;-75.616;2022-10-31T04:01:45;9.52;;;3.30;;
74914;SDS011;63475;45.140;-75.616;2022-10-31T04:02:53;7.28;;;4.30;;
74914;SDS011;63475;45.140;-75.616;2022-10-31T04:03:59;14.15;;;4.43;;
74914;SDS011;63475;45.140;-75.616;2022-10-31T04:05:01;8.60;;;5.00;;
74914;SDS011;63475;45.140;-75.616;2022-10-31T04:06:04;4.20;;;3.80;;
74914;SDS011;63475;45.140;-75.616;2022-10-31T04:07:08;13.35;;;7.75;;
74914;SDS011;63475;45.140;-75.616;2022-10-31T04:08:12;12.02;;;6.53;;
74914;SDS011;63475;45.140;-75.616;2022-10-31T04:09:17;14.43;;;5.20;;
74914;SDS011;63475;45.140;-75.616;2022-10-31T04:10:19;6.68;;;3.78;;
74914;SDS011;63475;45.140;-75.616;2022-10-31T04:11:23;14.82;;;9.55;;
74914;SDS011;63475;45.140;-75.616;2022-10-31T04:12:30;15.05;;;7.18;;
74914;SDS011;63475;45.140;-75.616;2022-10-31T04:13:33;14.93;;;4.47;;
74914;SDS011;63475;45.140;-75.616;2022-10-31T04:14:36;13.43;;;7.20;;
74914;SDS011;63475;45.140;-75.616;2022-10-31T04:15:39;26.13;;;8.68;;
74914;SDS011;63475;45.140;-75.616;2022-10-31T04:16:43;6.90;;;2.80;;
74914;SDS011;63475;45.140;-75.616;2022-10-31T04:17:45;4.65;;;4.05;;
74914;SDS011;63475;45.140;-75.616;2022-10-31T04:18:47;9.77;;;5.97;;
74914;SDS011;63475;45.140;-75.616;2022-10-31T04:19:48;11.07;;;5.90;;
74914;SDS011;63475;45.140;-75.616;2022-10-31T04:20:58;4.55;;;2.10;;
74914;SDS011;63475;45.140;-75.616;2022-10-31T04:22:00;2.85;;;2.22;;
74914;SDS011;63475;45.140;-75.616;2022-10-31T04:23:02;3.03;;;2.78;;
74914;SDS011;63475;45.140;-75.616;2022-10-31T04:24:04;3.70;;;2.75;;
74914;SDS011;63475;45.140;-75.616;2022-10-31T04:25:07;5.43;;;2.60;;
74914;SDS011;63475;45.140;-75.616;2022-10-31T04:26:12;4.10;;;3.15;;
74914;SDS011;63475;45.140;-75.616;2022-10-31T04:27:13;5.88;;;3.72;;
74914;SDS011;63475;45.140;-75.616;2022-10-31T04:28:14;6.80;;;4.13;;
74914;SDS011;63475;45.140;-75.616;2022-10-31T04:29:15;2.38;;;1.88;;
74914;SDS011;63475;45.140;-75.616;2022-10-31T04:30:16;8.00;;;2.90;;
74914;SDS011;63475;45.140;-75.616;2022-10-31T04:31:17;2.08;;;1.77;;
74914;SDS011;63475;45.140;-75.616;2022-10-31T04:32:18;1.65;;;1.42;;
74914;SDS011;63475;45.140;-75.616;2022-10-31T04:33:19;1.98;;;1.58;;
74914;SDS011;63475;45.140;-75.616;2022-10-31T04:34:20;1.35;;;0.60;;
74914;SDS011;63475;45.140;-75.616;2022-10-31T04:35:21;0.80;;;0.30;;
74914;SDS011;63475;45.140;-75.616;2022-10-31T04:36:21;1.48;;;0.90;;
74914;SDS011;63475;45.140;-75.616;2022-10-31T04:37:22;1.42;;;0.77;;
74914;SDS011;63475;45.140;-75.616;2022-10-31T04:38:23;0.90;;;0.65;;
74914;SDS011;63475;45.140;-75.616;2022-10-31T04:39:24;1.80;;;1.70;;
74914;SDS011;63475;45.140;-75.616;2022-10-31T04:40:25;9.35;;;2.20;;
74914;SDS011;63475;45.140;-75.616;2022-10-31T04:41:26;1.50;;;1.00;;
74914;SDS011;63475;45.140;-75.616;2022-10-31T04:42:30;1.10;;;0.73;;
74914;SDS011;63475;45.140;-75.616;2022-10-31T04:43:31;5.18;;;1.98;;
74914;SDS011;63475;45.140;-75.616;2022-10-31T04:44:32;1.88;;;1.63;;
74914;SDS011;63475;45.140;-75.616;2022-10-31T04:45:33;1.27;;;1.17;;
74914;SDS011;63475;45.140;-75.616;2022-10-31T04:46:34;2.40;;;1.20;;
74914;SDS011;63475;45.140;-75.616;2022-10-31T04:47:35;0.95;;;0.80;;
74914;SDS011;63475;45.140;-75.616;2022-10-31T04:48:36;1.73;;;1.13;;
74914;SDS011;63475;45.140;-75.616;2022-10-31T04:49:37;1.40;;;1.05;;
74914;SDS011;63475;45.140;-75.616;2022-10-31T04:50:37;1.88;;;1.77;;
74914;SDS011;63475;45.140;-75.616;2022-10-31T04:51:38;0.60;;;0.60;;
74914;SDS011;63475;45.140;-75.616;2022-10-31T04:52:40;0.80;;;0.60;;
74914;SDS011;63475;45.140;-75.616;2022-10-31T04:53:42;1.95;;;1.85;;
74914;SDS011;63475;45.140;-75.616;2022-10-31T04:54:43;3.85;;;3.20;;
74914;SDS011;63475;45.140;-75.616;2022-10-31T04:55:43;0.68;;;0.52;;
74914;SDS011;63475;45.140;-75.616;2022-10-31T04:56:44;1.20;;;0.70;;
74914;SDS011;63475;45.140;-75.616;2022-10-31T04:57:48;1.35;;;1.10;;
74914;SDS011;63475;45.140;-75.616;2022-10-31T04:58:53;0.90;;;0.70;;
74914;SDS011;63475;45.140;-75.616;2022-10-31T04:59:54;0.43;;;0.43;;
74914;SDS011;63475;45.140;-75.616;2022-10-31T05:00:55;2.42;;;2.22;;
74914;SDS011;63475;45.140;-75.616;2022-10-31T05:01:56;0.98;;;0.82;;
74914;SDS011;63475;45.140;-75.616;2022-10-31T05:02:57;1.65;;;1.55;;
74914;SDS011;63475;45.140;-75.616;2022-10-31T05:03:58;1.08;;;0.82;;
74914;SDS011;63475;45.140;-75.616;2022-10-31T05:04:59;3.90;;;1.75;;
74914;SDS011;63475;45.140;-75.616;2022-10-31T05:06:00;1.45;;;1.17;;
74914;SDS011;63475;45.140;-75.616;2022-10-31T05:07:01;1.20;;;1.10;;
74914;SDS011;63475;45.140;-75.616;2022-10-31T05:08:02;1.50;;;0.80;;
74914;SDS011;63475;45.140;-75.616;2022-10-31T05:09:03;2.10;;;1.20;;
74914;SDS011;63475;45.140;-75.616;2022-10-31T05:10:04;1.20;;;1.08;;
74914;SDS011;63475;45.140;-75.616;2022-10-31T05:11:05;0.50;;;0.10;;
74914;SDS011;63475;45.140;-75.616;2022-10-31T05:12:06;1.58;;;1.48;;
74914;SDS011;63475;45.140;-75.616;2022-10-31T05:13:07;4.55;;;0.98;;
74914;SDS011;63475;45.140;-75.616;2022-10-31T05:14:08;0.73;;;0.22;;
74914;SDS011;63475;45.140;-75.616;2022-10-31T05:15:09;4.95;;;2.28;;
74914;SDS011;63475;45.140;-75.616;2022-10-31T05:16:10;0.65;;;0.45;;
74914;SDS011;63475;45.140;-75.616;2022-10-31T05:17:11;1.00;;;0.73;;
74914;SDS011;63475;45.140;-75.616;2022-10-31T05:18:12;1.17;;;0.88;;
74914;SDS011;63475;45.140;-75.616;2022-10-31T05:19:13;9.40;;;1.50;;
74914;SDS011;63475;45.140;-75.616;2022-10-31T05:20:14;0.88;;;0.75;;
74914;SDS011;63475;45.140;-75.616;2022-10-31T05:21:16;0.95;;;0.82;;
74914;SDS011;63475;45.140;-75.616;2022-10-31T05:22:17;3.90;;;1.02;;
74914;SDS011;63475;45.140;-75.616;2022-10-31T05:23:17;2.17;;;1.42;;
74914;SDS011;63475;45.140;-75.616;2022-10-31T05:24:18;2.67;;;2.47;;
74914;SDS011;63475;45.140;-75.616;2022-10-31T05:25:22;1.05;;;0.20;;
74914;SDS011;63475;45.140;-75.616;2022-10-31T05:26:26;3.70;;;1.20;;
74914;SDS011;63475;45.140;-75.616;2022-10-31T05:27:27;1.58;;;1.27;;
74914;SDS011;63475;45.140;-75.616;2022-10-31T05:28:28;0.90;;;0.65;;
74914;SDS011;63475;45.140;-75.616;2022-10-31T05:29:29;1.33;;;0.95;;
74914;SDS011;63475;45.140;-75.616;2022-10-31T05:30:33;2.40;;;0.75;;
74914;SDS011;63475;45.140;-75.616;2022-10-31T05:31:34;2.60;;;2.40;;
74914;SDS011;63475;45.140;-75.616;2022-10-31T05:32:42;2.15;;;2.03;;
74914;SDS011;63475;45.140;-75.616;2022-10-31T05:33:45;1.48;;;1.33;;
74914;SDS011;63475;45.140;-75.616;2022-10-31T05:34:46;0.80;;;0.55;;
74914;SDS011;63475;45.140;-75.616;2022-10-31T05:35:47;1.08;;;0.88;;
74914;SDS011;63475;45.140;-75.616;2022-10-31T05:36:48;5.22;;;1.25;;
74914;SDS011;63475;45.140;-75.616;2022-10-31T05:37:49;1.88;;;1.40;;
74914;SDS011;63475;45.140;-75.616;2022-10-31T05:38:50;1.23;;;0.68;;
74914;SDS011;63475;45.140;-75.616;2022-10-31T05:39:51;1.70;;;1.10;;
74914;SDS011;63475;45.140;-75.616;2022-10-31T05:40:54;2.42;;;2.08;;
74914;SDS011;63475;45.140;-75.616;2022-10-31T05:41:57;1.63;;;1.45;;
74914;SDS011;63475;45.140;-75.616;2022-10-31T05:42:58;7.80;;;3.45;;
74914;SDS011;63475;45.140;-75.616;2022-10-31T05:43:59;12.57;;;2.80;;
74914;SDS011;63475;45.140;-75.616;2022-10-31T05:45:00;4.72;;;2.17;;
74914;SDS011;63475;45.140;-75.616;2022-10-31T05:46:02;1.70;;;1.60;;
74914;SDS011;63475;45.140;-75.616;2022-10-31T05:47:03;4.63;;;2.67;;
74914;SDS011;63475;45.140;-75.616;2022-10-31T05:48:04;1.65;;;1.10;;
74914;SDS011;63475;45.140;-75.616;2022-10-31T05:49:05;2.38;;;1.65;;
74914;SDS011;63475;45.140;-75.616;2022-10-31T05:50:06;8.70;;;2.58;;
74914;SDS011;63475;45.140;-75.616;2022-10-31T05:51:08;1.23;;;0.82;;
74914;SDS011;63475;45.140;-75.616;2022-10-31T05:52:09;1.42;;;1.08;;
74914;SDS011;63475;45.140;-75.616;2022-10-31T05:53:09;4.75;;;1.13;;
74914;SDS011;63475;45.140;-75.616;2022-10-31T05:54:10;1.63;;;1.33;;
74914;SDS011;63475;45.140;-75.616;2022-10-31T05:55:11;2.33;;;2.15;;
74914;SDS011;63475;45.140;-75.616;2022-10-31T05:56:12;4.25;;;1.15;;
74914;SDS011;63475;45.140;-75.616;2022-10-31T05:57:13;1.02;;;0.70;;
74914;SDS011;63475;45.140;-75.616;2022-10-31T05:58:14;2.15;;;1.88;;
74914;SDS011;63475;45.140;-75.616;2022-10-31T05:59:15;3.05;;;1.30;;
74914;SDS011;63475;45.140;-75.616;2022-10-31T06:00:16;16.95;;;6.18;;
74914;SDS011;63475;45.140;-75.616;2022-10-31T06:01:18;2.08;;;1.35;;
74914;SDS011;63475;45.140;-75.616;2022-10-31T06:02:19;3.95;;;3.40;;
74914;SDS011;63475;45.140;-75.616;2022-10-31T06:03:20;2.13;;;0.75;;
74914;SDS011;63475;45.140;-75.616;2022-10-31T06:04:21;1.13;;;0.95;;
74914;SDS011;63475;45.140;-75.616;2022-10-31T06:05:22;1.50;;;1.40;;
74914;SDS011;63475;45.140;-75.616;2022-10-31T06:06:23;1.77;;;1.20;;
74914;SDS011;63475;45.140;-75.616;2022-10-31T06:07:24;1.35;;;0.52;;
74914;SDS011;63475;45.140;-75.616;2022-10-31T06:08:24;0.85;;;0.63;;
74914;SDS011;63475;45.140;-75.616;2022-10-31T06:09:25;3.33;;;1.67;;
74914;SDS011;63475;45.140;-75.616;2022-10-31T06:10:26;1.23;;;1.13;;
74914;SDS011;63475;45.140;-75.616;2022-10-31T06:11:28;1.40;;;0.88;;
74914;SDS011;63475;45.140;-75.616;2022-10-31T06:12:28;4.78;;;2.72;;
74914;SDS011;63475;45.140;-75.616;2022-10-31T06:13:30;1.88;;;1.77;;
74914;SDS011;63475;45.140;-75.616;2022-10-31T06:14:30;5.35;;;3.47;;
74914;SDS011;63475;45.140;-75.616;2022-10-31T06:15:31;1.05;;;0.90;;
74914;SDS011;63475;45.140;-75.616;2022-10-31T06:16:32;2.15;;;1.13;;
74914;SDS011;63475;45.140;-75.616;2022-10-31T06:17:34;4.05;;;1.00;;
74914;SDS011;63475;45.140;-75.616;2022-10-31T06:18:35;2.33;;;0.95;;
74914;SDS011;63475;45.140;-75.616;2022-10-31T06:19:36;1.05;;;0.88;;
74914;SDS011;63475;45.140;-75.616;2022-10-31T06:20:37;1.63;;;1.08;;
74914;SDS011;63475;45.140;-75.616;2022-10-31T06:21:38;2.05;;;1.45;;
74914;SDS011;63475;45.140;-75.616;2022-10-31T06:22:38;1.00;;;0.90;;
74914;SDS011;63475;45.140;-75.616;2022-10-31T06:23:40;1.58;;;1.15;;
74914;SDS011;63475;45.140;-75.616;2022-10-31T06:24:41;1.08;;;0.77;;
74914;SDS011;63475;45.140;-75.616;2022-10-31T06:25:41;2.33;;;1.30;;
74914;SDS011;63475;45.140;-75.616;2022-10-31T06:26:42;1.48;;;1.38;;
74914;SDS011;63475;45.140;-75.616;2022-10-31T06:27:43;4.47;;;4.10;;
74914;SDS011;63475;45.140;-75.616;2022-10-31T06:28:44;3.47;;;1.15;;
74914;SDS011;63475;45.140;-75.616;2022-10-31T06:29:45;1.90;;;1.70;;
74914;SDS011;63475;45.140;-75.616;2022-10-31T06:30:46;3.17;;;2.88;;
74914;SDS011;63475;45.140;-75.616;2022-10-31T06:31:47;5.50;;;1.38;;
74914;SDS011;63475;45.140;-75.616;2022-10-31T06:32:51;2.45;;;2.25;;
74914;SDS011;63475;45.140;-75.616;2022-10-31T06:33:51;5.07;;;1.95;;
74914;SDS011;63475;45.140;-75.616;2022-10-31T06:34:52;9.45;;;1.95;;
74914;SDS011;63475;45.140;-75.616;2022-10-31T06:35:53;3.65;;;1.10;;
74914;SDS011;63475;45.140;-75.616;2022-10-31T06:36:54;1.73;;;1.63;;
74914;SDS011;63475;45.140;-75.616;2022-10-31T06:37:55;1.25;;;0.82;;
74914;SDS011;63475;45.140;-75.616;2022-10-31T06:38:56;2.83;;;2.63;;
74914;SDS011;63475;45.140;-75.616;2022-10-31T06:39:57;7.68;;;1.48;;